ěÝzenÝ letovÚho provozu ╚eskÚ republiky
OPMET data - Ceska Republika Aktualizace: 21.10.2021 12:26:28  UTC
SIGMET / AIRMET
LKAA SIGMET U07 VALID 211100/211310 LKPW- LKAA PRAHA FIR SEV TURB FCST W OF LINE N5027 E01721 - N4844 E01709 SFC/8000FT MOV E NC=
Warning / Vystraha
LKPR AD WRNG 6 VALID 211200/211515 SFC WIND 250/35KT MAX 50KT FCST NC=
LKPD AD WRNG 1 VALID 211030/211300 SFC WSPD MAX OVR 40KT FCST=
LKNA AD WRNG 1 VALID 211145/211745 SFC WSPD MAX OVR 40KT FCST INTSF=
LKKB AD WRNG 2 VALID 211220/211500 SFC WSPD MAX OVR 40KT OBS AND FCST=
LKCV AD WRNG 1 VALID 211010/211300 SFC WSPD MAX 40 KT=
AIREP - NIL
REG QNH
REGIONAL QNH FORECAST ISSUED 2021-10-21 11:43 AREA VALID FM/TL QNH/HPA/ : LKAA 211200/211500 0999 =
 
METAR / SPECI
METAR LKBC 211230Z AUTO 24023G34KT 9999 BKN062 16/02 Q1007=
METAR LKCV 211200Z 26027G44KT CAVOK 17/04 Q1004 NOSIG RMK BLU BLU=
METAR LKKB 211200Z 25032G45KT 220V280 9999 BKN048 16/04 Q1003 NOSIG RMK BLU BLU=
METAR LKKU 211200Z 21007KT 9999 -RA FEW042 16/08 Q1006=
METAR LKKV 211200Z 25016G29KT 220V290 9999 BKN020 09/05 Q1005 RMK REG QNH 0999=
METAR LKLN 211230Z AUTO 27016G34KT 230V310 9999 -RA BKN046 11/06 Q1008=
METAR LKMT 211200Z 21023G34KT CAVOK 15/09 Q1003 TEMPO 20020G41KT RMK REG QNH 0999=
METAR COR LKNA 211200Z 25019G30KT 220V280 9999 FEW047 SCT080 BKN230 15/04 Q1006 NOSIG RMK BLU BLU=
METAR LKPD 211230Z 27031G43KT CAVOK 18/04 Q1004 NOSIG RMK BLU BLU=
METAR LKPJ 211200Z AUTO 16008KT 9999 BKN100/// 14/10 Q1005=
METAR LKPR 211200Z 25037G48KT 9999 SCT040 15/05 Q1004 NOSIG RMK REG QNH 0999=
METAR LKTB 211200Z 21008KT CAVOK 13/09 Q1006 NOSIG RMK REG QNH 0999=
METAR LKVO NIL
TAF
TAF LKBC NIL
TAF LKCV 211100Z 2112/2212 23022G35KT CAVOK      TEMPO 2112/2115 24030G45KT      BECMG 2115/2118 24017G27KT      TEMPO 2121/2200 24020G30KT 8000 RA BKN030      BECMG 2200/2203 26014KT      TEMPO 2202/2206 27008KT=
TAF LKKB 211100Z 2112/2212 23016G26KT CAVOK      TEMPO 2112/2117 24028G50KT      PROB30 TEMPO 2112/2121 9999 SHRA BKN035      BECMG 2118/2120 24016KT      TEMPO 2121/2200 5000 SHRA BKN015      BECMG 2209/2211 24020G30KT=
TAF LKKU NIL
TAF LKKV 211100Z 2112/2218 24014KT 9999 BKN020      TEMPO 2112/2122 24017G36KT 7000 SHRA BKN012      PROB30 TEMPO 2112/2115 25020G46KT      BECMG 2122/2200 25010KT 9999 SCT040      TEMPO 2209/2218 26015G32KT=
TAF LKLN NIL
TAF LKMT 211100Z 2112/2218 22016KT CAVOK      TEMPO 2112/2218 24017G35KT      PROB30 TEMPO 2112/2117 24020G45KT 9999 -SHRA BKN035      TEMPO 2201/2205 9999 BKN035=
TAF LKNA 211100Z 2112/2212 26016KT CAVOK      TEMPO 2112/2116 BKN030      TEMPO 2112/2118 27025G45KT      TEMPO 2122/2204 6000 SHRA BKN015      BECMG 2202/2204 26010KT=
TAF LKPD 211100Z 2112/2212 26022G34KT CAVOK      TEMPO 2112/2116 26030G48KT      BECMG 2116/2119 26016KT      TEMPO 2121/2200 26016G28KT 8000 RA BKN045      BECMG 2200/2203 27012KT=
TAF LKPJ NIL
TAF LKPR 211100Z 2112/2218 25025KT CAVOK      TEMPO 2112/2122 25030G45KT      PROB40 TEMPO 2112/2115 25035G54KT      TEMPO 2120/2123 7000 SHRA BKN025      BECMG 2123/2201 26015KT      TEMPO 2209/2218 25015G35KT=
TAF LKTB 211100Z 2112/2218 26015KT CAVOK      TEMPO 2112/2115 8000 -SHRA BKN035      TEMPO 2112/2118 26018G42KT      BECMG 2118/2120 24008KT      TEMPO 2200/2204 9999 BKN035      BECMG 2209/2211 25010KT      TEMPO 2211/2218 27015G30KT=
TAF LKVO NIL